createdAt,value
2023-03-13T00:01:23.274Z,8.60
2023-03-13T00:07:38.076Z,6.40
2023-03-13T00:14:15.663Z,5.70
2023-03-13T00:28:19.864Z,6.40
2023-03-13T00:34:23.898Z,4.20
2023-03-13T00:40:27.280Z,4.80
2023-03-13T00:46:30.805Z,2.40
2023-03-13T00:52:33.777Z,4.00
2023-03-13T00:58:40.808Z,5.00
2023-03-13T01:04:44.039Z,3.40
2023-03-13T01:10:47.086Z,3.10
2023-03-13T01:16:51.612Z,3.90
2023-03-13T01:22:55.180Z,3.30
2023-03-13T01:28:58.318Z,3.80
2023-03-13T01:35:04.734Z,3.10
2023-03-13T01:41:12.420Z,4.60
2023-03-13T01:47:15.887Z,4.20
2023-03-13T01:53:46.818Z,3.50
2023-03-13T01:59:52.024Z,4.20
2023-03-13T02:05:55.799Z,4.30
2023-03-13T02:12:09.798Z,3.10
2023-03-13T02:18:13.256Z,3.50
2023-03-13T02:24:28.935Z,3.70
2023-03-13T02:30:32.153Z,3.60
2023-03-13T02:36:39.396Z,4.50
2023-03-13T02:42:45.052Z,4.70
2023-03-13T02:48:53.812Z,3.60
2023-03-13T02:55:05.793Z,3.10
2023-03-13T03:01:09.125Z,3.50
2023-03-13T03:07:14.165Z,4.20
2023-03-13T03:13:17.821Z,3.20
2023-03-13T03:19:21.107Z,3.50
2023-03-13T03:25:24.137Z,4.00
2023-03-13T03:31:27.488Z,2.90
2023-03-13T03:37:32.770Z,4.70
2023-03-13T03:43:36.567Z,3.30
2023-03-13T03:49:41.073Z,3.80
2023-03-13T03:55:45.685Z,4.40
2023-03-13T04:01:49.090Z,3.00
2023-03-13T04:07:57.707Z,3.30
2023-03-13T04:14:01.132Z,3.00
2023-03-13T04:20:07.444Z,3.00
2023-03-13T04:26:10.442Z,3.50
2023-03-13T04:32:15.413Z,5.80
2023-03-13T04:38:37.116Z,4.30
2023-03-13T04:44:49.163Z,3.50
2023-03-13T04:51:09.710Z,5.40
2023-03-13T04:57:31.078Z,3.30
2023-03-13T05:03:51.212Z,3.00
2023-03-13T05:10:14.558Z,3.70
2023-03-13T05:16:38.702Z,4.30
2023-03-13T05:23:01.599Z,3.40
2023-03-13T05:29:23.388Z,3.90
2023-03-13T05:35:32.192Z,5.20
2023-03-13T05:41:54.212Z,3.70
2023-03-13T05:48:15.986Z,4.90
2023-03-13T05:54:51.124Z,4.40
2023-03-13T06:01:09.666Z,4.50
2023-03-13T06:07:20.920Z,4.70
2023-03-13T06:13:24.476Z,4.50
2023-03-13T06:19:30.092Z,5.70
2023-03-13T06:25:34.831Z,5.20
2023-03-13T06:31:37.956Z,8.90
2023-03-13T06:37:41.100Z,7.20
2023-03-13T06:43:44.363Z,8.10
2023-03-13T06:49:47.262Z,9.70
2023-03-13T06:55:50.216Z,3.50
2023-03-13T07:01:53.330Z,5.70
2023-03-13T07:07:56.461Z,4.80
2023-03-13T07:14:15.168Z,5.80
2023-03-13T07:20:19.662Z,7.50
2023-03-13T07:26:22.610Z,5.00
2023-03-13T07:32:25.531Z,6.10
2023-03-13T07:38:28.475Z,6.30
2023-03-13T07:44:31.389Z,7.00
2023-03-13T07:50:34.566Z,4.60
2023-03-13T07:56:37.613Z,6.60
2023-03-13T08:02:40.697Z,6.00
2023-03-13T08:08:44.235Z,8.00
2023-03-13T08:14:47.257Z,2.80
2023-03-13T08:20:52.436Z,6.00
2023-03-13T08:26:55.511Z,8.90
2023-03-13T08:32:58.589Z,6.80
2023-03-13T08:39:05.161Z,8.20
2023-03-13T08:45:09.688Z,7.00
2023-03-13T08:51:14.619Z,6.90
2023-03-13T08:57:17.909Z,6.30
2023-03-13T09:03:20.956Z,6.40
2023-03-13T09:09:24.718Z,7.20
2023-03-13T09:15:28.039Z,7.40
2023-03-13T09:21:33.184Z,7.80
2023-03-13T09:27:36.288Z,9.00
2023-03-13T09:33:39.598Z,3.80
2023-03-13T09:39:42.606Z,5.50
2023-03-13T09:45:49.629Z,6.60
2023-03-13T09:52:00.008Z,6.60
2023-03-13T09:58:16.566Z,6.20
2023-03-13T10:10:59.980Z,7.00
2023-03-13T10:17:13.711Z,6.30
2023-03-13T10:23:21.702Z,5.00
2023-03-13T10:29:27.114Z,4.20
2023-03-13T10:35:37.175Z,4.20
2023-03-13T10:41:40.109Z,5.50
2023-03-13T10:47:43.102Z,6.70
2023-03-13T10:53:46.050Z,4.60
2023-03-13T10:59:50.941Z,4.80
2023-03-13T11:05:55.755Z,9.60
2023-03-13T11:12:14.979Z,5.50
2023-03-13T11:18:23.512Z,4.40
2023-03-13T11:24:51.311Z,3.80
2023-03-13T11:31:00.158Z,3.10
2023-03-13T11:37:16.091Z,3.40
2023-03-13T11:43:46.766Z,3.60
2023-03-13T11:50:07.580Z,2.60
2023-03-13T11:56:25.650Z,2.50
2023-03-13T12:02:36.266Z,1.80
2023-03-13T12:08:43.036Z,3.80
2023-03-13T12:15:19.095Z,1.80
2023-03-13T12:21:30.675Z,1.20
2023-03-13T12:27:38.364Z,1.50
2023-03-13T12:34:16.567Z,2.10
2023-03-13T12:40:39.003Z,4.30
2023-03-13T12:46:57.786Z,1.60
2023-03-13T12:53:30.973Z,1.60
2023-03-13T13:00:05.698Z,3.30
2023-03-13T13:06:11.897Z,3.80
2023-03-13T13:12:25.925Z,2.70
2023-03-13T13:18:33.384Z,1.80
2023-03-13T13:24:48.793Z,1.20
2023-03-13T13:30:55.659Z,2.30
2023-03-13T13:37:19.923Z,2.30
2023-03-13T13:43:24.755Z,4.10
2023-03-13T13:49:33.091Z,2.00
2023-03-13T13:55:44.082Z,4.70
2023-03-13T14:02:35.496Z,4.20
2023-03-13T14:08:41.977Z,2.40
2023-03-13T14:14:45.073Z,1.10
2023-03-13T14:21:14.170Z,2.50
2023-03-13T14:27:18.948Z,1.50
2023-03-13T14:33:22.468Z,2.00
2023-03-13T14:39:31.316Z,2.60
2023-03-13T14:45:37.031Z,2.20
2023-03-13T14:51:40.339Z,1.90
2023-03-13T14:58:00.113Z,2.50
2023-03-13T15:04:02.987Z,3.00
2023-03-13T15:10:27.178Z,2.00
2023-03-13T15:16:30.246Z,3.20
2023-03-13T15:22:40.926Z,3.50
2023-03-13T15:28:43.939Z,1.80
2023-03-13T15:34:46.892Z,2.40
2023-03-13T15:40:50.139Z,3.20
2023-03-13T15:46:53.366Z,2.80
2023-03-13T15:53:00.840Z,2.10
2023-03-13T15:59:12.181Z,2.80
2023-03-13T16:05:15.636Z,2.90
2023-03-13T16:11:18.701Z,3.60
2023-03-13T16:17:27.061Z,3.10
2023-03-13T16:23:30.365Z,3.00
2023-03-13T16:29:33.271Z,3.20
2023-03-13T16:35:36.719Z,3.60
2023-03-13T16:41:40.281Z,2.30
2023-03-13T16:47:44.494Z,3.30
2023-03-13T16:53:49.366Z,2.70
2023-03-13T16:59:52.472Z,2.60
2023-03-13T17:06:01.099Z,3.00
2023-03-13T17:12:04.346Z,3.20
2023-03-13T17:18:10.318Z,3.20
2023-03-13T17:24:13.372Z,3.50
2023-03-13T17:30:19.157Z,2.90
2023-03-13T17:36:27.353Z,5.10
2023-03-13T17:42:30.567Z,4.20
2023-03-13T17:48:33.705Z,5.30
2023-03-13T17:54:36.782Z,5.20
2023-03-13T18:00:46.756Z,5.80
2023-03-13T18:06:53.206Z,6.40
2023-03-13T18:12:59.595Z,5.90
2023-03-13T18:19:05.476Z,7.60
2023-03-13T18:25:10.381Z,6.10
2023-03-13T18:31:13.495Z,6.00
2023-03-13T18:37:24.890Z,7.20
2023-03-13T18:43:28.239Z,7.70
2023-03-13T18:49:31.714Z,6.60
2023-03-13T18:55:35.117Z,8.10
2023-03-13T19:01:40.797Z,8.90
2023-03-13T19:07:44.763Z,11.00
2023-03-13T19:13:48.468Z,9.00
2023-03-13T19:19:57.093Z,8.40
2023-03-13T19:26:11.187Z,11.00
2023-03-13T19:32:19.461Z,8.50
2023-03-13T19:38:22.553Z,10.60
2023-03-13T19:44:25.587Z,9.30
2023-03-13T19:50:29.783Z,9.00
2023-03-13T19:56:33.814Z,11.00
2023-03-13T20:02:37.831Z,10.80
2023-03-13T20:08:40.981Z,12.20
2023-03-13T20:14:44.705Z,10.20
2023-03-13T20:20:48.977Z,9.30
2023-03-13T20:26:52.399Z,7.40
2023-03-13T20:32:59.935Z,8.20
2023-03-13T20:39:07.290Z,10.10
2023-03-13T20:45:14.314Z,9.80
2023-03-13T20:51:17.508Z,6.30
2023-03-13T20:57:22.144Z,8.50
2023-03-13T21:03:26.754Z,6.20
2023-03-13T21:09:37.013Z,6.70
2023-03-13T21:15:41.318Z,5.70
2023-03-13T21:21:51.981Z,6.50
2023-03-13T21:27:58.714Z,7.50
2023-03-13T21:34:02.530Z,8.40
2023-03-13T21:40:08.885Z,6.70
2023-03-13T21:46:14.490Z,6.40
2023-03-13T21:52:19.368Z,6.50
2023-03-13T21:58:23.201Z,5.40
2023-03-13T22:04:26.541Z,5.80
2023-03-13T22:10:29.991Z,6.50
2023-03-13T22:16:34.359Z,4.80
2023-03-13T22:22:37.827Z,4.50
2023-03-13T22:28:41.697Z,4.60
2023-03-13T22:42:35.295Z,2.70
2023-03-13T22:49:08.966Z,3.30
2023-03-13T23:02:56.290Z,2.00
2023-03-13T23:09:00.566Z,4.90
2023-03-13T23:15:05.874Z,4.60
2023-03-13T23:21:15.317Z,3.00
2023-03-13T23:27:23.601Z,3.20
2023-03-13T23:33:56.902Z,4.30
2023-03-13T23:40:06.661Z,2.50
2023-03-13T23:46:16.590Z,2.60
2023-03-13T23:52:20.433Z,2.40
2023-03-13T23:58:23.855Z,1.90
